createdAt,value
2023-02-14T00:00:09.176Z,23.10
2023-02-14T00:01:10.612Z,20.00
2023-02-14T00:01:44.957Z,19.80
2023-02-14T00:02:30.858Z,20.00
2023-02-14T00:03:13.163Z,19.90
2023-02-14T00:04:00.885Z,18.80
2023-02-14T00:04:38.521Z,18.50
2023-02-14T00:05:12.167Z,21.50
2023-02-14T00:05:52.944Z,19.60
2023-02-14T00:06:29.998Z,16.70
2023-02-14T00:07:03.988Z,18.50
2023-02-14T00:07:40.036Z,19.20
2023-02-14T00:08:36.624Z,19.10
2023-02-14T00:09:17.723Z,18.20
2023-02-14T00:09:51.466Z,18.70
2023-02-14T00:10:28.012Z,19.30
2023-02-14T00:11:01.709Z,21.20
2023-02-14T00:11:37.688Z,20.60
2023-02-14T00:12:16.374Z,22.30
2023-02-14T00:13:03.621Z,19.00
2023-02-14T00:13:37.184Z,19.00
2023-02-14T00:14:35.801Z,19.50
2023-02-14T00:15:27.993Z,19.30
2023-02-14T00:16:08.488Z,17.10
2023-02-14T00:16:46.490Z,19.70
2023-02-14T00:17:20.413Z,18.50
2023-02-14T00:18:00.331Z,21.60
2023-02-14T00:19:20.070Z,21.80
2023-02-14T00:20:01.214Z,17.50
2023-02-14T00:20:58.106Z,17.70
2023-02-14T00:21:36.233Z,17.20
2023-02-14T00:22:23.426Z,18.20
2023-02-14T00:23:01.134Z,17.10
2023-02-14T00:23:36.221Z,18.30
2023-02-14T00:24:13.111Z,18.10
2023-02-14T00:25:06.992Z,24.30
2023-02-14T00:26:44.830Z,18.50
2023-02-14T00:27:46.625Z,18.60
2023-02-14T00:28:22.262Z,15.10
2023-02-14T00:29:03.129Z,16.00
2023-02-14T00:29:36.719Z,19.70
2023-02-14T00:30:13.344Z,17.30
2023-02-14T00:30:47.778Z,19.10
2023-02-14T00:31:21.652Z,18.70
2023-02-14T00:31:55.464Z,19.00
2023-02-14T00:32:31.598Z,17.30
2023-02-14T00:33:18.759Z,17.30
2023-02-14T00:33:53.222Z,16.40
2023-02-14T00:34:36.803Z,17.70
2023-02-14T00:35:28.309Z,17.00
2023-02-14T00:36:07.959Z,17.50
2023-02-14T00:36:44.670Z,16.20
2023-02-14T00:37:51.894Z,16.30
2023-02-14T00:38:45.342Z,16.90
2023-02-14T00:39:27.689Z,15.50
2023-02-14T00:40:25.648Z,16.80
2023-02-14T00:41:09.349Z,16.20
2023-02-14T00:42:02.719Z,17.70
2023-02-14T00:42:36.694Z,17.90
2023-02-14T00:43:14.594Z,18.80
2023-02-14T00:46:37.636Z,19.20
2023-02-14T00:47:05.961Z,17.50
2023-02-14T00:47:39.471Z,16.20
2023-02-14T00:48:35.615Z,18.60
2023-02-14T00:49:22.956Z,16.70
2023-02-14T00:50:12.685Z,17.10
2023-02-14T00:51:21.254Z,15.30
2023-02-14T00:51:56.710Z,15.90
2023-02-14T00:52:30.990Z,17.60
2023-02-14T00:53:04.622Z,17.50
2023-02-14T00:53:38.530Z,17.60
2023-02-14T00:54:12.366Z,16.70
2023-02-14T00:54:45.952Z,17.40
2023-02-14T00:55:20.710Z,17.60
2023-02-14T00:55:54.210Z,18.80
2023-02-14T00:56:30.716Z,19.30
2023-02-14T00:57:04.285Z,18.70
2023-02-14T00:57:37.804Z,18.00
2023-02-14T00:58:11.255Z,18.90
2023-02-14T00:58:45.557Z,19.10
2023-02-14T00:59:18.951Z,19.20
2023-02-14T00:59:52.585Z,19.20
2023-02-14T01:00:27.347Z,19.90
2023-02-14T01:01:02.391Z,18.30
2023-02-14T01:01:36.164Z,17.90
2023-02-14T01:02:09.857Z,19.10
2023-02-14T01:02:43.444Z,19.40
2023-02-14T01:03:16.991Z,18.00
2023-02-14T01:03:50.638Z,19.60
2023-02-14T01:04:25.145Z,18.60
2023-02-14T01:04:59.377Z,18.60
2023-02-14T01:05:33.034Z,19.30
2023-02-14T01:06:08.718Z,22.00
2023-02-14T01:06:42.242Z,18.70
2023-02-14T01:07:15.828Z,17.50
2023-02-14T01:07:49.314Z,17.60
2023-02-14T01:08:22.931Z,19.00
2023-02-14T01:08:58.822Z,18.80
2023-02-14T01:09:33.472Z,23.90
2023-02-14T01:10:08.934Z,20.90
2023-02-14T01:10:43.737Z,22.00
2023-02-14T01:11:20.977Z,24.40
2023-02-14T01:11:54.420Z,21.40
2023-02-14T01:12:27.859Z,26.70
2023-02-14T01:13:01.455Z,30.20
2023-02-14T01:13:34.973Z,32.70
2023-02-14T01:14:08.883Z,32.40
2023-02-14T01:14:42.405Z,25.10
2023-02-14T01:15:16.296Z,26.20
2023-02-14T01:15:56.714Z,25.70
2023-02-14T01:16:33.462Z,22.60
2023-02-14T01:17:07.888Z,22.70
2023-02-14T01:17:41.294Z,20.20
2023-02-14T01:18:15.642Z,20.50
2023-02-14T01:18:49.554Z,20.70
2023-02-14T01:19:26.445Z,19.00
2023-02-14T01:20:00.365Z,19.30
2023-02-14T01:20:49.118Z,20.50
2023-02-14T01:21:28.044Z,16.20
2023-02-14T01:22:02.914Z,16.30
2023-02-14T01:22:38.327Z,16.60
2023-02-14T01:23:12.435Z,17.80
2023-02-14T01:23:47.250Z,16.80
2023-02-14T01:24:20.666Z,17.40
2023-02-14T01:24:54.993Z,21.00
2023-02-14T01:26:35.418Z,18.30
2023-02-14T01:27:11.865Z,18.90
2023-02-14T01:27:45.366Z,22.80
2023-02-14T01:28:19.987Z,18.80
2023-02-14T01:28:55.334Z,21.90
2023-02-14T01:29:30.034Z,22.40
2023-02-14T01:30:04.997Z,37.40
2023-02-14T01:30:41.541Z,22.00
2023-02-14T01:31:20.769Z,37.10
2023-02-14T01:31:54.416Z,24.30
2023-02-14T01:32:32.182Z,26.80
2023-02-14T01:33:05.679Z,32.80
2023-02-14T01:33:41.544Z,49.50
2023-02-14T01:34:15.200Z,25.10
2023-02-14T01:34:48.647Z,25.30
2023-02-14T01:35:22.237Z,26.60
2023-02-14T01:35:55.855Z,24.70
2023-02-14T01:36:30.711Z,24.40
2023-02-14T01:37:04.234Z,24.30
2023-02-14T01:37:38.104Z,21.40
2023-02-14T01:38:11.527Z,24.50
2023-02-14T01:38:46.292Z,23.90
2023-02-14T01:39:19.773Z,21.60
2023-02-14T01:39:53.867Z,21.40
2023-02-14T01:40:27.338Z,21.10
2023-02-14T01:41:02.031Z,19.60
2023-02-14T01:41:58.283Z,22.00
2023-02-14T02:01:31.799Z,12.80
2023-02-14T02:02:07.843Z,13.90
2023-02-14T02:02:41.528Z,14.60
2023-02-14T02:03:19.502Z,15.60
2023-02-14T02:04:00.194Z,32.30
2023-02-14T02:04:54.436Z,28.40
2023-02-14T02:05:55.180Z,27.10
2023-02-14T02:06:34.821Z,17.40
2023-02-14T02:07:19.501Z,18.80
2023-02-14T02:07:56.038Z,18.80
2023-02-14T02:08:29.613Z,28.20
2023-02-14T02:09:23.384Z,16.30
2023-02-14T02:10:01.142Z,18.70
2023-02-14T02:10:34.742Z,22.00
2023-02-14T02:11:08.331Z,17.20
2023-02-14T02:11:43.400Z,20.20
2023-02-14T02:12:16.890Z,12.50
2023-02-14T02:12:53.114Z,25.20
2023-02-14T02:32:06.884Z,18.30
2023-02-14T02:32:49.419Z,19.80
2023-02-14T02:33:38.106Z,14.00
2023-02-14T02:34:33.206Z,15.80
2023-02-14T02:35:26.400Z,13.40
2023-02-14T02:36:26.944Z,44.20
2023-02-14T02:37:28.289Z,12.20
2023-02-14T02:38:25.956Z,12.30
2023-02-14T02:39:17.116Z,10.70
2023-02-14T02:40:39.214Z,11.00
2023-02-14T02:41:27.107Z,15.60
2023-02-14T02:42:22.265Z,26.00
2023-02-14T02:43:45.892Z,21.20
2023-02-14T02:44:27.029Z,12.80
2023-02-14T02:45:18.328Z,12.90
2023-02-14T02:47:19.495Z,13.30
2023-02-14T02:48:09.972Z,13.00
2023-02-14T02:48:49.571Z,13.80
2023-02-14T02:52:13.270Z,14.50
2023-02-14T02:53:08.948Z,15.30
2023-02-14T02:53:50.356Z,16.50
2023-02-14T02:54:37.393Z,14.90
2023-02-14T02:55:20.853Z,16.70
2023-02-14T02:56:20.146Z,14.70
2023-02-14T02:56:59.058Z,14.40
2023-02-14T02:57:39.619Z,15.00
2023-02-14T02:58:14.106Z,17.40
2023-02-14T02:58:58.040Z,15.60
2023-02-14T02:59:39.588Z,18.30
2023-02-14T03:00:16.390Z,16.70
2023-02-14T03:00:53.498Z,15.80
2023-02-14T03:01:36.975Z,17.10
2023-02-14T03:02:13.741Z,16.30
2023-02-14T03:03:14.629Z,19.00
2023-02-14T03:04:11.487Z,16.10
2023-02-14T03:04:56.352Z,16.20
2023-02-14T03:05:31.212Z,15.30
2023-02-14T03:06:05.031Z,15.90
2023-02-14T03:06:38.353Z,17.60
2023-02-14T03:07:52.120Z,15.90
2023-02-14T03:08:25.775Z,15.40
2023-02-14T03:09:19.357Z,15.00
2023-02-14T03:10:01.640Z,16.40
2023-02-14T03:10:39.038Z,14.60
2023-02-14T03:11:13.877Z,15.30
2023-02-14T03:11:59.785Z,16.70
2023-02-14T03:12:37.640Z,16.00
2023-02-14T03:13:34.549Z,15.30
2023-02-14T03:14:26.741Z,15.50
2023-02-14T03:15:19.203Z,16.60
2023-02-14T03:15:54.531Z,15.60
2023-02-14T03:16:34.908Z,16.70
2023-02-14T03:17:12.164Z,15.10
2023-02-14T03:18:15.610Z,15.20
2023-02-14T03:19:31.773Z,14.50
2023-02-14T03:20:33.395Z,14.50
2023-02-14T03:21:21.515Z,14.80
2023-02-14T03:21:59.094Z,14.80
2023-02-14T03:22:48.645Z,14.60
2023-02-14T03:23:30.932Z,16.60
2023-02-14T03:24:24.929Z,14.80
2023-02-14T03:25:32.105Z,16.70
2023-02-14T03:26:18.398Z,16.20
2023-02-14T03:27:15.647Z,15.70
2023-02-14T03:28:12.558Z,16.20
2023-02-14T03:29:07.337Z,15.20
2023-02-14T03:29:54.509Z,15.50
2023-02-14T03:30:42.188Z,14.40
2023-02-14T03:31:29.442Z,15.80
2023-02-14T03:32:29.937Z,16.00
2023-02-14T03:33:28.054Z,14.80
2023-02-14T03:34:21.564Z,15.80
2023-02-14T03:35:00.214Z,16.10
2023-02-14T03:35:47.920Z,15.10
2023-02-14T03:36:27.972Z,16.60
2023-02-14T03:37:17.909Z,16.20
2023-02-14T03:38:22.585Z,17.40
2023-02-14T03:39:42.761Z,17.40
2023-02-14T03:40:35.517Z,16.60
2023-02-14T03:41:18.543Z,16.90
2023-02-14T03:42:07.549Z,17.50
2023-02-14T03:42:50.904Z,18.60
2023-02-14T03:43:41.695Z,19.00
2023-02-14T03:44:20.570Z,20.90
2023-02-14T03:44:58.643Z,51.50
2023-02-14T03:45:38.636Z,46.00
2023-02-14T03:46:30.580Z,26.90
2023-02-14T03:47:13.384Z,22.90
2023-02-14T03:47:49.196Z,19.50
2023-02-14T03:48:25.873Z,36.40
2023-02-14T03:49:05.440Z,32.60
2023-02-14T03:49:45.765Z,40.40
2023-02-14T03:50:20.906Z,49.50
2023-02-14T03:50:56.998Z,21.10
2023-02-14T03:51:34.581Z,38.80
2023-02-14T03:52:11.110Z,39.00
2023-02-14T03:52:46.935Z,26.40
2023-02-14T03:53:26.052Z,23.10
2023-02-14T03:54:00.142Z,23.60
2023-02-14T03:54:35.931Z,23.90
2023-02-14T03:55:10.374Z,22.50
2023-02-14T03:55:51.646Z,23.90
2023-02-14T03:57:18.567Z,24.40
2023-02-14T03:58:04.017Z,21.30
2023-02-14T03:58:44.474Z,19.00
2023-02-14T03:59:26.004Z,18.10
2023-02-14T03:59:59.869Z,20.70
2023-02-14T04:00:35.765Z,25.30
2023-02-14T04:01:27.203Z,20.20
2023-02-14T04:02:06.910Z,22.20
2023-02-14T04:02:46.813Z,16.70
2023-02-14T04:03:21.949Z,21.00
2023-02-14T04:03:57.600Z,19.30
2023-02-14T04:04:36.147Z,20.00
2023-02-14T04:05:16.848Z,19.20
2023-02-14T04:05:52.683Z,17.80
2023-02-14T04:06:26.539Z,18.50
2023-02-14T04:07:00.400Z,23.60
2023-02-14T04:07:45.525Z,16.90
2023-02-14T04:08:28.129Z,22.60
2023-02-14T04:09:01.721Z,18.90
2023-02-14T04:09:37.934Z,34.70
2023-02-14T04:10:14.168Z,20.00
2023-02-14T04:10:49.519Z,19.10
2023-02-14T04:11:24.454Z,24.40
2023-02-14T04:11:58.175Z,23.70
2023-02-14T04:12:37.809Z,19.60
2023-02-14T04:13:11.635Z,20.60
2023-02-14T04:13:45.243Z,21.70
2023-02-14T04:14:18.952Z,17.10
2023-02-14T04:14:52.564Z,17.60
2023-02-14T04:15:26.055Z,17.10
2023-02-14T04:16:02.361Z,18.00
2023-02-14T04:16:56.122Z,17.70
2023-02-14T04:17:48.218Z,17.20
2023-02-14T04:18:42.327Z,16.20
2023-02-14T04:19:24.848Z,17.30
2023-02-14T04:19:58.263Z,15.80
2023-02-14T04:20:31.807Z,17.80
2023-02-14T04:21:06.067Z,18.00
2023-02-14T04:21:39.499Z,20.60
2023-02-14T04:22:12.996Z,20.00
2023-02-14T04:22:46.956Z,19.20
2023-02-14T04:23:20.428Z,18.60
2023-02-14T04:23:54.008Z,18.40
2023-02-14T04:24:27.575Z,21.00
2023-02-14T04:25:00.989Z,19.40
2023-02-14T04:25:34.607Z,18.50
2023-02-14T04:26:08.320Z,19.90
2023-02-14T04:26:54.327Z,20.00
2023-02-14T04:27:27.844Z,17.70
2023-02-14T04:28:01.255Z,18.80
2023-02-14T04:28:35.146Z,19.40
2023-02-14T04:29:08.597Z,18.30
2023-02-14T04:29:48.155Z,18.20
2023-02-14T04:30:23.039Z,18.60
2023-02-14T04:31:02.596Z,18.70
2023-02-14T04:31:36.409Z,19.30
2023-02-14T04:32:13.404Z,19.20
2023-02-14T04:32:47.404Z,18.00
2023-02-14T04:33:20.730Z,18.60
2023-02-14T04:33:54.436Z,20.40
2023-02-14T04:34:27.929Z,20.10
2023-02-14T04:35:01.344Z,19.50
2023-02-14T04:35:35.817Z,18.10
2023-02-14T04:36:09.324Z,21.10
2023-02-14T04:36:42.755Z,19.00
2023-02-14T04:37:18.862Z,19.00
2023-02-14T04:37:53.052Z,18.00
2023-02-14T04:38:26.579Z,18.10
2023-02-14T04:39:01.163Z,18.00
2023-02-14T04:39:37.762Z,17.00
2023-02-14T04:40:11.761Z,18.20
2023-02-14T04:40:45.264Z,17.20
2023-02-14T04:41:18.665Z,18.40
2023-02-14T04:41:52.051Z,17.70
2023-02-14T04:42:28.772Z,16.90
2023-02-14T04:43:04.899Z,17.40
2023-02-14T04:43:38.313Z,18.20
2023-02-14T04:44:11.789Z,17.70
2023-02-14T04:44:45.440Z,16.70
2023-02-14T04:45:18.953Z,18.40
2023-02-14T04:45:52.399Z,18.70
2023-02-14T04:46:26.019Z,20.40
2023-02-14T04:46:59.609Z,17.70
2023-02-14T04:47:33.120Z,16.80
2023-02-14T04:48:06.505Z,18.10
2023-02-14T04:48:39.968Z,18.60
2023-02-14T04:49:13.760Z,18.40
2023-02-14T04:49:47.337Z,15.10
2023-02-14T04:50:20.934Z,16.60
2023-02-14T04:50:55.362Z,17.50
2023-02-14T04:51:29.003Z,18.50
2023-02-14T04:52:02.763Z,17.90
2023-02-14T04:52:36.403Z,17.20
2023-02-14T04:53:11.525Z,16.70
2023-02-14T04:53:44.877Z,17.20
2023-02-14T04:54:19.472Z,17.80
2023-02-14T04:54:53.169Z,17.60
2023-02-14T04:55:26.667Z,18.60
2023-02-14T04:56:00.054Z,18.00
2023-02-14T04:56:33.555Z,17.60
2023-02-14T04:57:07.041Z,18.20
2023-02-14T04:57:40.908Z,17.50
2023-02-14T04:58:14.495Z,16.90
2023-02-14T04:58:50.794Z,17.00
2023-02-14T04:59:25.140Z,18.30
2023-02-14T04:59:58.653Z,17.30
2023-02-14T05:00:32.220Z,16.30
2023-02-14T05:01:11.251Z,16.70
2023-02-14T05:01:44.801Z,17.20
2023-02-14T05:02:18.323Z,16.40
2023-02-14T05:02:51.823Z,16.90
2023-02-14T05:03:25.931Z,17.70
2023-02-14T05:03:59.350Z,17.40
2023-02-14T05:04:32.821Z,17.20
2023-02-14T05:05:06.898Z,16.80
2023-02-14T05:05:40.429Z,18.10
2023-02-14T05:06:13.972Z,18.20
2023-02-14T05:06:47.590Z,18.10
2023-02-14T05:07:21.215Z,17.40
2023-02-14T05:07:54.886Z,18.20
2023-02-14T05:08:28.433Z,17.00
2023-02-14T05:09:02.461Z,16.90
2023-02-14T05:09:36.216Z,19.40
2023-02-14T05:10:10.205Z,19.10
2023-02-14T05:10:44.336Z,16.30
2023-02-14T05:11:18.203Z,17.70
2023-02-14T05:11:52.085Z,17.90
2023-02-14T05:12:25.784Z,18.00
2023-02-14T05:12:59.317Z,17.70
2023-02-14T05:13:32.779Z,17.20
2023-02-14T05:14:06.226Z,16.60
2023-02-14T05:14:39.905Z,17.40
2023-02-14T05:15:13.780Z,17.20
2023-02-14T05:15:47.296Z,17.50
2023-02-14T05:16:20.785Z,17.10
2023-02-14T05:16:55.375Z,17.70
2023-02-14T05:17:28.915Z,17.30
2023-02-14T05:18:03.235Z,17.90
2023-02-14T05:18:36.705Z,16.40
2023-02-14T05:19:10.196Z,17.90
2023-02-14T05:19:43.568Z,16.30
2023-02-14T05:20:17.015Z,17.50
2023-02-14T05:20:52.054Z,17.40
2023-02-14T05:21:25.684Z,16.20
2023-02-14T05:21:59.189Z,15.80
2023-02-14T05:22:32.634Z,16.40
2023-02-14T05:23:07.354Z,18.00
2023-02-14T05:23:41.403Z,16.00
2023-02-14T05:24:14.961Z,15.70
2023-02-14T05:24:48.318Z,16.60
2023-02-14T05:25:21.739Z,15.40
2023-02-14T05:25:55.239Z,15.10
2023-02-14T05:26:29.211Z,15.70
2023-02-14T05:27:02.637Z,17.20
2023-02-14T05:27:36.215Z,13.70
2023-02-14T05:28:10.901Z,14.70
2023-02-14T05:28:44.404Z,16.60
2023-02-14T05:29:17.809Z,16.10
2023-02-14T05:29:51.490Z,16.70
2023-02-14T05:30:28.246Z,16.30
2023-02-14T05:31:02.211Z,18.90
2023-02-14T05:31:36.405Z,18.90
2023-02-14T05:32:09.915Z,16.70
2023-02-14T05:32:43.458Z,17.50
2023-02-14T05:33:16.922Z,15.70
2023-02-14T05:33:50.453Z,13.90
2023-02-14T05:34:23.930Z,15.30
2023-02-14T05:34:58.055Z,18.20
2023-02-14T05:35:32.639Z,14.90
2023-02-14T05:36:06.363Z,19.60
2023-02-14T05:36:39.867Z,30.00
2023-02-14T05:37:13.330Z,20.10
2023-02-14T05:37:49.940Z,18.10
2023-02-14T05:38:23.423Z,19.10
2023-02-14T05:38:56.847Z,19.50
2023-02-14T05:39:30.542Z,24.40
2023-02-14T05:40:04.526Z,19.80
2023-02-14T05:40:37.884Z,25.50
2023-02-14T05:41:11.597Z,20.10
2023-02-14T05:41:45.102Z,19.80
2023-02-14T05:42:18.567Z,22.30
2023-02-14T05:42:56.182Z,19.70
2023-02-14T05:43:30.864Z,17.80
2023-02-14T05:44:04.597Z,19.20
2023-02-14T05:44:38.075Z,19.10
2023-02-14T05:45:12.700Z,22.60
2023-02-14T05:45:46.309Z,23.30
2023-02-14T05:46:19.913Z,25.20
2023-02-14T05:46:55.068Z,22.50
2023-02-14T05:47:28.604Z,28.50
2023-02-14T05:48:02.768Z,22.30
2023-02-14T05:48:36.392Z,29.60
2023-02-14T05:49:09.972Z,27.40
2023-02-14T05:49:43.584Z,33.40
2023-02-14T05:50:18.531Z,31.80
2023-02-14T05:50:52.670Z,41.80
2023-02-14T05:51:26.348Z,29.70
2023-02-14T05:51:59.976Z,29.60
2023-02-14T05:52:33.754Z,29.40
2023-02-14T05:53:07.244Z,26.30
2023-02-14T05:53:40.805Z,29.80
2023-02-14T05:54:14.192Z,31.90
2023-02-14T05:54:47.645Z,30.20
2023-02-14T05:55:22.750Z,27.90
2023-02-14T05:55:57.278Z,25.00
2023-02-14T05:56:31.026Z,28.90
2023-02-14T05:57:04.509Z,44.60
2023-02-14T05:57:38.177Z,27.40
2023-02-14T05:58:12.912Z,28.00
2023-02-14T05:58:46.420Z,19.80
2023-02-14T05:59:19.927Z,35.70
2023-02-14T05:59:53.710Z,26.30
2023-02-14T06:00:27.518Z,33.00
2023-02-14T06:01:01.764Z,22.30
2023-02-14T06:01:35.703Z,18.70
2023-02-14T06:02:10.251Z,19.40
2023-02-14T06:02:43.906Z,22.90
2023-02-14T06:03:17.741Z,29.20
2023-02-14T06:03:51.403Z,36.70
2023-02-14T06:04:27.211Z,37.50
2023-02-14T06:05:08.720Z,28.00
2023-02-14T06:05:42.267Z,29.90
2023-02-14T06:06:15.969Z,31.10
2023-02-14T06:06:49.385Z,25.20
2023-02-14T06:07:22.838Z,30.10
2023-02-14T06:07:58.246Z,35.00
2023-02-14T06:08:42.382Z,28.80
2023-02-14T06:09:15.880Z,25.10
2023-02-14T06:09:49.466Z,34.30
2023-02-14T06:10:25.410Z,29.50
2023-02-14T06:10:59.189Z,31.70
2023-02-14T06:11:32.926Z,40.30
2023-02-14T06:12:09.336Z,32.20
2023-02-14T06:12:42.964Z,32.00
2023-02-14T06:13:16.433Z,35.70
2023-02-14T06:13:52.693Z,51.40
2023-02-14T06:14:26.475Z,28.50
2023-02-14T06:14:59.836Z,51.00
2023-02-14T06:15:33.178Z,42.90
2023-02-14T06:16:06.827Z,29.30
2023-02-14T06:16:40.305Z,27.90
2023-02-14T06:17:13.850Z,32.40
2023-02-14T06:17:52.169Z,29.70
2023-02-14T06:18:28.419Z,37.40
2023-02-14T06:19:01.865Z,38.40
2023-02-14T06:19:36.515Z,34.60
2023-02-14T06:20:10.488Z,38.50
2023-02-14T06:20:44.325Z,26.20
2023-02-14T06:21:17.761Z,23.70
2023-02-14T06:21:51.165Z,23.90
2023-02-14T06:22:24.641Z,30.60
2023-02-14T06:23:00.173Z,33.20
2023-02-14T06:23:33.638Z,40.40
2023-02-14T06:24:07.287Z,42.60
2023-02-14T06:24:40.702Z,45.30
2023-02-14T06:25:14.378Z,39.50
2023-02-14T06:25:48.195Z,62.20
2023-02-14T06:26:21.687Z,55.70
2023-02-14T06:26:55.341Z,50.50
2023-02-14T06:27:32.786Z,44.20
2023-02-14T06:28:06.846Z,40.70
2023-02-14T06:28:40.382Z,33.60
2023-02-14T06:29:13.811Z,51.50
2023-02-14T06:29:47.421Z,58.20
2023-02-14T06:30:22.478Z,34.30
2023-02-14T06:30:56.192Z,32.00
2023-02-14T06:31:30.325Z,37.20
2023-02-14T06:32:07.177Z,33.30
2023-02-14T06:32:40.937Z,31.00
2023-02-14T06:33:15.045Z,36.80
2023-02-14T06:33:48.509Z,42.90
2023-02-14T06:34:21.885Z,30.70
2023-02-14T06:34:55.484Z,31.80
2023-02-14T06:35:28.919Z,31.90
2023-02-14T06:36:02.411Z,30.60
2023-02-14T06:36:36.070Z,29.30
2023-02-14T06:37:09.693Z,27.10
2023-02-14T06:37:45.410Z,33.90
2023-02-14T06:38:18.919Z,27.80
2023-02-14T06:38:52.500Z,30.90
2023-02-14T06:39:25.997Z,32.40
2023-02-14T06:39:59.548Z,28.50
2023-02-14T06:40:33.114Z,33.30
2023-02-14T06:41:08.059Z,29.30
2023-02-14T06:41:41.530Z,33.10
2023-02-14T06:42:15.039Z,29.00
2023-02-14T06:42:48.514Z,27.80
2023-02-14T06:43:21.917Z,27.50
2023-02-14T06:43:55.234Z,25.10
2023-02-14T06:44:28.694Z,24.70
2023-02-14T06:45:03.448Z,26.80
2023-02-14T06:45:37.120Z,24.70
2023-02-14T06:46:11.628Z,25.00
2023-02-14T06:46:45.379Z,39.40
2023-02-14T06:47:18.893Z,40.70
2023-02-14T06:47:52.333Z,47.50
2023-02-14T06:48:26.068Z,32.70
2023-02-14T06:48:59.532Z,31.60
2023-02-14T06:49:33.038Z,87.00
2023-02-14T06:50:07.516Z,44.50
2023-02-14T06:50:41.021Z,32.40
2023-02-14T06:51:14.711Z,42.90
2023-02-14T06:51:48.140Z,33.00
2023-02-14T06:52:21.646Z,40.60
2023-02-14T06:52:55.149Z,36.90
2023-02-14T06:53:28.942Z,33.30
2023-02-14T06:54:02.723Z,31.70
2023-02-14T06:54:36.820Z,30.10
2023-02-14T06:55:13.300Z,34.90
2023-02-14T06:55:47.235Z,30.80
2023-02-14T06:56:20.808Z,29.80
2023-02-14T06:56:54.270Z,28.10
2023-02-14T06:57:27.894Z,26.90
2023-02-14T06:58:01.402Z,27.60
2023-02-14T06:58:35.204Z,28.40
2023-02-14T06:59:08.871Z,27.90
2023-02-14T06:59:42.208Z,33.60
2023-02-14T07:00:16.122Z,31.60
2023-02-14T07:00:49.633Z,30.10
2023-02-14T07:01:23.212Z,34.60
2023-02-14T07:01:56.698Z,30.90
2023-02-14T07:02:30.258Z,30.10
2023-02-14T07:03:03.904Z,27.70
2023-02-14T07:03:37.394Z,27.60
2023-02-14T07:04:11.059Z,26.40
2023-02-14T07:04:44.544Z,24.40
2023-02-14T07:05:19.215Z,26.30
2023-02-14T07:05:53.574Z,25.70
2023-02-14T07:06:26.995Z,28.00
2023-02-14T07:07:01.622Z,26.60
2023-02-14T07:07:35.315Z,27.50
2023-02-14T07:08:08.790Z,28.00
2023-02-14T07:08:42.762Z,27.80
2023-02-14T07:09:17.374Z,26.80
2023-02-14T07:09:50.877Z,25.40
2023-02-14T07:10:24.638Z,25.80
2023-02-14T07:10:59.289Z,24.70
2023-02-14T07:11:33.350Z,22.70
2023-02-14T07:12:07.169Z,22.20
2023-02-14T07:12:41.271Z,25.00
2023-02-14T07:13:14.829Z,22.60
2023-02-14T07:13:49.529Z,23.60
2023-02-14T07:14:23.317Z,22.80
2023-02-14T07:14:56.808Z,22.90
2023-02-14T07:15:30.749Z,22.60
2023-02-14T07:16:04.517Z,22.00
2023-02-14T07:16:38.142Z,21.70
2023-02-14T07:17:11.660Z,24.20
2023-02-14T07:17:45.070Z,23.80
2023-02-14T07:18:20.447Z,23.10
2023-02-14T07:18:54.009Z,22.90
2023-02-14T07:19:27.603Z,23.60
2023-02-14T07:20:01.221Z,22.40
2023-02-14T07:20:35.326Z,22.00
2023-02-14T07:21:08.746Z,23.00
2023-02-14T07:21:42.250Z,24.60
2023-02-14T07:22:15.871Z,23.00
2023-02-14T07:22:49.398Z,25.70
2023-02-14T07:23:23.205Z,23.70
2023-02-14T07:23:57.017Z,24.90
2023-02-14T07:24:30.556Z,23.20
2023-02-14T07:25:04.918Z,23.60
2023-02-14T07:25:38.406Z,26.00
2023-02-14T07:26:18.386Z,22.40
2023-02-14T07:26:51.787Z,22.50
2023-02-14T07:27:25.360Z,23.40
2023-02-14T07:27:58.917Z,24.40
2023-02-14T07:28:33.890Z,25.90
2023-02-14T07:29:07.417Z,22.90
2023-02-14T07:29:41.139Z,26.50
2023-02-14T07:30:15.112Z,24.40
2023-02-14T07:30:48.830Z,24.50
2023-02-14T07:31:23.900Z,23.50
2023-02-14T07:31:57.584Z,27.00
2023-02-14T07:32:31.160Z,23.00
2023-02-14T07:33:05.888Z,22.70
2023-02-14T07:33:39.401Z,22.70
2023-02-14T07:34:12.863Z,24.50
2023-02-14T07:34:46.333Z,23.30
2023-02-14T07:35:20.058Z,23.70
2023-02-14T07:35:53.499Z,22.10
2023-02-14T07:36:27.436Z,23.00
2023-02-14T07:37:02.094Z,21.30
2023-02-14T07:37:36.193Z,23.20
2023-02-14T07:38:09.838Z,22.30
2023-02-14T07:38:44.400Z,23.60
2023-02-14T07:39:17.947Z,24.50
2023-02-14T07:39:51.346Z,23.20
2023-02-14T07:40:25.507Z,23.00
2023-02-14T07:40:59.372Z,22.40
2023-02-14T07:41:33.093Z,20.90
2023-02-14T07:42:08.451Z,20.10
2023-02-14T07:42:42.649Z,20.30
2023-02-14T07:43:16.170Z,21.20
2023-02-14T07:43:49.592Z,20.70
2023-02-14T07:44:23.158Z,20.50
2023-02-14T07:44:56.555Z,20.00
2023-02-14T07:45:30.167Z,21.30
2023-02-14T07:46:03.967Z,19.60
2023-02-14T07:46:37.532Z,18.70
2023-02-14T07:47:11.078Z,21.20
2023-02-14T07:47:44.450Z,19.10
2023-02-14T07:48:17.958Z,18.30
2023-02-14T07:48:52.289Z,18.50
2023-02-14T07:49:25.796Z,18.20
2023-02-14T07:49:59.286Z,18.10
2023-02-14T07:50:32.934Z,17.10
2023-02-14T07:51:06.592Z,18.30
2023-02-14T07:51:40.154Z,17.80
2023-02-14T07:52:13.614Z,17.10
2023-02-14T07:52:47.758Z,17.00
2023-02-14T07:53:21.121Z,17.20
2023-02-14T07:53:54.668Z,17.30
2023-02-14T07:54:28.413Z,16.20
2023-02-14T07:55:01.882Z,16.80
2023-02-14T07:55:36.066Z,15.20
2023-02-14T07:56:13.361Z,17.10
2023-02-14T07:56:46.960Z,16.30
2023-02-14T07:57:20.810Z,17.80
2023-02-14T07:57:54.523Z,16.50
2023-02-14T07:58:28.028Z,16.60
2023-02-14T07:59:01.582Z,17.50
2023-02-14T07:59:35.239Z,15.00
2023-02-14T08:00:09.490Z,15.70
2023-02-14T08:00:49.052Z,15.40
2023-02-14T08:01:22.600Z,14.90
2023-02-14T08:01:56.368Z,17.00
2023-02-14T08:02:29.835Z,14.80
2023-02-14T08:03:03.893Z,15.90
2023-02-14T08:03:37.684Z,15.20
2023-02-14T08:04:14.062Z,14.50
2023-02-14T08:04:47.696Z,15.20
2023-02-14T08:05:21.439Z,15.50
2023-02-14T08:05:57.868Z,16.80
2023-02-14T08:06:31.367Z,15.20
2023-02-14T08:07:04.800Z,15.20
2023-02-14T08:07:38.245Z,13.90
2023-02-14T08:08:11.695Z,14.60
2023-02-14T08:08:45.855Z,15.70
2023-02-14T08:09:24.987Z,14.50
2023-02-14T08:09:58.339Z,13.90
2023-02-14T08:10:31.850Z,13.10
2023-02-14T08:11:05.360Z,13.30
2023-02-14T08:11:57.637Z,13.70
2023-02-14T08:12:49.866Z,12.60
2023-02-14T08:13:23.740Z,15.20
2023-02-14T08:13:57.175Z,12.90
2023-02-14T08:14:30.606Z,12.90
2023-02-14T08:15:22.845Z,12.50
2023-02-14T08:16:06.167Z,14.80
2023-02-14T08:16:40.073Z,15.20
2023-02-14T08:17:14.152Z,15.90
2023-02-14T08:17:48.857Z,12.70
2023-02-14T08:18:27.449Z,13.00
2023-02-14T08:19:02.122Z,13.70
2023-02-14T08:19:36.705Z,13.90
2023-02-14T08:20:10.701Z,12.30
2023-02-14T08:20:46.236Z,13.50
2023-02-14T08:21:19.742Z,13.60
2023-02-14T08:21:53.263Z,14.50
2023-02-14T08:22:26.776Z,13.00
2023-02-14T08:23:00.286Z,14.20
2023-02-14T08:23:34.618Z,15.70
2023-02-14T08:24:08.097Z,11.90
2023-02-14T08:24:41.564Z,12.40
2023-02-14T08:25:17.201Z,12.90
2023-02-14T08:26:00.896Z,11.60
2023-02-14T08:26:44.361Z,12.70
2023-02-14T08:27:22.814Z,11.80
2023-02-14T08:27:57.167Z,12.40
2023-02-14T08:28:33.569Z,12.00
2023-02-14T08:29:08.186Z,11.60
2023-02-14T08:29:43.238Z,13.80
2023-02-14T08:30:18.587Z,12.30
2023-02-14T08:31:00.511Z,11.80
2023-02-14T08:31:36.431Z,10.60
2023-02-14T08:32:11.325Z,11.10
2023-02-14T08:32:46.515Z,11.40
2023-02-14T08:33:20.497Z,12.90
2023-02-14T08:33:53.969Z,11.20
2023-02-14T08:34:27.726Z,11.20
2023-02-14T08:35:01.387Z,11.00
2023-02-14T08:35:36.729Z,10.90
2023-02-14T08:36:10.552Z,11.50
2023-02-14T08:36:44.416Z,12.60
2023-02-14T08:37:17.938Z,13.00
2023-02-14T08:37:51.665Z,11.50
2023-02-14T08:38:25.210Z,12.60
2023-02-14T08:38:58.729Z,11.80
2023-02-14T08:39:33.173Z,11.90
2023-02-14T08:40:07.727Z,14.00
2023-02-14T08:40:41.826Z,12.80
2023-02-14T08:41:16.506Z,10.90
2023-02-14T08:41:49.988Z,11.50
2023-02-14T08:42:23.702Z,11.00
2023-02-14T08:42:57.801Z,12.70
2023-02-14T08:43:33.354Z,13.00
2023-02-14T08:44:08.054Z,13.50
2023-02-14T08:44:41.643Z,13.20
2023-02-14T08:45:15.218Z,11.00
2023-02-14T08:45:54.044Z,12.20